sensor_id;sensor_type;location;lat;lon;timestamp;P1;durP1;ratioP1;P2;durP2;ratioP2
77802;SDS011;66993;48.256;16.422;2023-02-05T00:02:44;4.9;;;3.1;;
77802;SDS011;66993;48.256;16.422;2023-02-05T00:07:45;5.5;;;4.2;;
77802;SDS011;66993;48.256;16.422;2023-02-05T00:12:47;5.1;;;4.2;;
77802;SDS011;66993;48.256;16.422;2023-02-05T00:17:48;4.2;;;3.2;;
77802;SDS011;66993;48.256;16.422;2023-02-05T00:22:49;5.6;;;3.5;;
77802;SDS011;66993;48.256;16.422;2023-02-05T00:27:50;4.6;;;3.1;;
77802;SDS011;66993;48.256;16.422;2023-02-05T00:32:52;6.3;;;4.1;;
77802;SDS011;66993;48.256;16.422;2023-02-05T00:37:53;4.7;;;3.6;;
77802;SDS011;66993;48.256;16.422;2023-02-05T00:42:54;3.8;;;2.7;;
77802;SDS011;66993;48.256;16.422;2023-02-05T00:47:55;4.6;;;3.8;;
77802;SDS011;66993;48.256;16.422;2023-02-05T00:52:57;5.8;;;3.2;;
77802;SDS011;66993;48.256;16.422;2023-02-05T00:57:58;5.9;;;4.1;;
77802;SDS011;66993;48.256;16.422;2023-02-05T01:02:59;4.3;;;3.3;;
77802;SDS011;66993;48.256;16.422;2023-02-05T01:08:00;4.2;;;3.0;;
77802;SDS011;66993;48.256;16.422;2023-02-05T01:13:02;4.4;;;3.4;;
77802;SDS011;66993;48.256;16.422;2023-02-05T01:18:03;4.7;;;3.0;;
77802;SDS011;66993;48.256;16.422;2023-02-05T01:23:04;5.6;;;3.4;;
77802;SDS011;66993;48.256;16.422;2023-02-05T01:28:06;5.6;;;3.5;;
77802;SDS011;66993;48.256;16.422;2023-02-05T01:33:07;5.6;;;3.1;;
77802;SDS011;66993;48.256;16.422;2023-02-05T01:38:08;5.5;;;3.9;;
77802;SDS011;66993;48.256;16.422;2023-02-05T01:43:10;4.3;;;2.9;;
77802;SDS011;66993;48.256;16.422;2023-02-05T01:48:11;4.0;;;3.5;;
77802;SDS011;66993;48.256;16.422;2023-02-05T01:53:12;4.2;;;2.8;;
77802;SDS011;66993;48.256;16.422;2023-02-05T01:58:13;3.0;;;2.3;;
77802;SDS011;66993;48.256;16.422;2023-02-05T02:03:14;6.2;;;3.8;;
77802;SDS011;66993;48.256;16.422;2023-02-05T02:08:16;5.6;;;2.9;;
77802;SDS011;66993;48.256;16.422;2023-02-05T02:13:18;4.9;;;4.0;;
77802;SDS011;66993;48.256;16.422;2023-02-05T02:18:18;4.7;;;3.1;;
77802;SDS011;66993;48.256;16.422;2023-02-05T02:23:21;4.3;;;2.8;;
77802;SDS011;66993;48.256;16.422;2023-02-05T02:28:22;4.3;;;3.0;;
77802;SDS011;66993;48.256;16.422;2023-02-05T02:33:24;4.2;;;2.4;;
77802;SDS011;66993;48.256;16.422;2023-02-05T02:38:25;5.2;;;3.3;;
77802;SDS011;66993;48.256;16.422;2023-02-05T02:43:25;5.7;;;3.0;;
77802;SDS011;66993;48.256;16.422;2023-02-05T02:48:26;4.9;;;2.9;;
77802;SDS011;66993;48.256;16.422;2023-02-05T02:53:29;4.6;;;3.5;;
77802;SDS011;66993;48.256;16.422;2023-02-05T02:58:29;6.4;;;2.9;;
77802;SDS011;66993;48.256;16.422;2023-02-05T03:03:30;4.8;;;3.0;;
77802;SDS011;66993;48.256;16.422;2023-02-05T03:08:32;4.9;;;3.0;;
77802;SDS011;66993;48.256;16.422;2023-02-05T03:13:32;3.5;;;2.4;;
77802;SDS011;66993;48.256;16.422;2023-02-05T03:18:33;4.2;;;3.4;;
77802;SDS011;66993;48.256;16.422;2023-02-05T03:23:35;6.9;;;2.5;;
77802;SDS011;66993;48.256;16.422;2023-02-05T03:28:36;4.6;;;3.5;;
77802;SDS011;66993;48.256;16.422;2023-02-05T03:33:40;4.5;;;3.5;;
77802;SDS011;66993;48.256;16.422;2023-02-05T03:38:42;4.5;;;2.5;;
77802;SDS011;66993;48.256;16.422;2023-02-05T03:43:41;7.0;;;3.2;;
77802;SDS011;66993;48.256;16.422;2023-02-05T03:48:44;6.3;;;3.0;;
77802;SDS011;66993;48.256;16.422;2023-02-05T03:53:44;5.1;;;4.0;;
77802;SDS011;66993;48.256;16.422;2023-02-05T03:58:44;4.4;;;3.4;;
77802;SDS011;66993;48.256;16.422;2023-02-05T04:03:45;4.3;;;2.6;;
77802;SDS011;66993;48.256;16.422;2023-02-05T04:08:46;5.3;;;3.6;;
77802;SDS011;66993;48.256;16.422;2023-02-05T04:13:47;4.6;;;3.0;;
77802;SDS011;66993;48.256;16.422;2023-02-05T04:18:48;4.9;;;3.9;;
77802;SDS011;66993;48.256;16.422;2023-02-05T04:23:49;4.8;;;3.7;;
77802;SDS011;66993;48.256;16.422;2023-02-05T04:28:51;5.8;;;3.2;;
77802;SDS011;66993;48.256;16.422;2023-02-05T04:33:52;3.7;;;3.1;;
77802;SDS011;66993;48.256;16.422;2023-02-05T04:38:53;4.3;;;3.2;;
77802;SDS011;66993;48.256;16.422;2023-02-05T04:43:54;4.9;;;3.8;;
77802;SDS011;66993;48.256;16.422;2023-02-05T04:48:56;4.5;;;3.4;;
77802;SDS011;66993;48.256;16.422;2023-02-05T04:53:57;4.1;;;2.6;;
77802;SDS011;66993;48.256;16.422;2023-02-05T04:58:58;5.0;;;3.7;;
77802;SDS011;66993;48.256;16.422;2023-02-05T05:03:59;4.5;;;2.6;;
77802;SDS011;66993;48.256;16.422;2023-02-05T05:09:01;5.2;;;3.0;;
77802;SDS011;66993;48.256;16.422;2023-02-05T05:14:02;3.9;;;2.6;;
77802;SDS011;66993;48.256;16.422;2023-02-05T05:19:03;3.8;;;2.7;;
77802;SDS011;66993;48.256;16.422;2023-02-05T05:24:05;4.5;;;3.2;;
77802;SDS011;66993;48.256;16.422;2023-02-05T05:29:06;4.9;;;3.8;;
77802;SDS011;66993;48.256;16.422;2023-02-05T05:34:07;4.5;;;3.2;;
77802;SDS011;66993;48.256;16.422;2023-02-05T05:39:08;5.0;;;3.7;;
77802;SDS011;66993;48.256;16.422;2023-02-05T05:44:10;4.1;;;3.0;;
77802;SDS011;66993;48.256;16.422;2023-02-05T05:49:11;3.7;;;3.0;;
77802;SDS011;66993;48.256;16.422;2023-02-05T05:54:12;5.6;;;3.0;;
77802;SDS011;66993;48.256;16.422;2023-02-05T05:59:13;5.1;;;3.6;;
77802;SDS011;66993;48.256;16.422;2023-02-05T06:04:14;5.2;;;3.1;;
77802;SDS011;66993;48.256;16.422;2023-02-05T06:09:16;5.0;;;3.5;;
77802;SDS011;66993;48.256;16.422;2023-02-05T06:14:17;4.1;;;3.4;;
77802;SDS011;66993;48.256;16.422;2023-02-05T06:19:18;5.2;;;3.3;;
77802;SDS011;66993;48.256;16.422;2023-02-05T06:24:19;5.3;;;3.8;;
77802;SDS011;66993;48.256;16.422;2023-02-05T06:29:21;6.5;;;4.1;;
77802;SDS011;66993;48.256;16.422;2023-02-05T06:34:22;4.1;;;3.1;;
77802;SDS011;66993;48.256;16.422;2023-02-05T06:39:23;4.4;;;3.8;;
77802;SDS011;66993;48.256;16.422;2023-02-05T06:44:24;5.1;;;2.8;;
77802;SDS011;66993;48.256;16.422;2023-02-05T06:49:26;4.3;;;3.9;;
77802;SDS011;66993;48.256;16.422;2023-02-05T06:54:27;5.3;;;3.4;;
77802;SDS011;66993;48.256;16.422;2023-02-05T06:59:28;5.0;;;2.8;;
77802;SDS011;66993;48.256;16.422;2023-02-05T07:04:30;4.3;;;3.5;;
77802;SDS011;66993;48.256;16.422;2023-02-05T07:09:31;5.3;;;3.1;;
77802;SDS011;66993;48.256;16.422;2023-02-05T07:14:35;5.8;;;3.7;;
77802;SDS011;66993;48.256;16.422;2023-02-05T07:19:33;5.1;;;3.3;;
77802;SDS011;66993;48.256;16.422;2023-02-05T07:24:34;3.9;;;3.0;;
77802;SDS011;66993;48.256;16.422;2023-02-05T07:29:36;4.8;;;3.9;;
77802;SDS011;66993;48.256;16.422;2023-02-05T07:34:37;7.6;;;4.3;;
77802;SDS011;66993;48.256;16.422;2023-02-05T07:39:38;4.8;;;3.8;;
77802;SDS011;66993;48.256;16.422;2023-02-05T07:44:39;4.6;;;3.3;;
77802;SDS011;66993;48.256;16.422;2023-02-05T07:49:41;5.8;;;3.1;;
77802;SDS011;66993;48.256;16.422;2023-02-05T07:54:42;5.1;;;3.6;;
77802;SDS011;66993;48.256;16.422;2023-02-05T07:59:43;4.5;;;3.1;;
77802;SDS011;66993;48.256;16.422;2023-02-05T08:04:44;5.9;;;4.4;;
77802;SDS011;66993;48.256;16.422;2023-02-05T08:09:46;4.8;;;3.1;;
77802;SDS011;66993;48.256;16.422;2023-02-05T08:14:47;4.4;;;3.3;;
77802;SDS011;66993;48.256;16.422;2023-02-05T08:19:49;5.5;;;3.6;;
77802;SDS011;66993;48.256;16.422;2023-02-05T08:24:49;3.8;;;3.1;;
77802;SDS011;66993;48.256;16.422;2023-02-05T08:29:51;5.8;;;4.0;;
77802;SDS011;66993;48.256;16.422;2023-02-05T08:34:52;5.2;;;3.2;;
77802;SDS011;66993;48.256;16.422;2023-02-05T08:39:53;3.4;;;2.5;;
77802;SDS011;66993;48.256;16.422;2023-02-05T08:44:54;4.9;;;3.4;;
77802;SDS011;66993;48.256;16.422;2023-02-05T08:49:56;5.4;;;3.0;;
77802;SDS011;66993;48.256;16.422;2023-02-05T08:54:57;5.8;;;4.0;;
77802;SDS011;66993;48.256;16.422;2023-02-05T08:59:58;3.8;;;2.8;;
77802;SDS011;66993;48.256;16.422;2023-02-05T09:04:59;4.0;;;2.5;;
77802;SDS011;66993;48.256;16.422;2023-02-05T09:10:01;4.3;;;3.9;;
77802;SDS011;66993;48.256;16.422;2023-02-05T09:15:02;3.4;;;2.6;;
77802;SDS011;66993;48.256;16.422;2023-02-05T09:20:03;4.3;;;3.9;;
77802;SDS011;66993;48.256;16.422;2023-02-05T09:25:05;5.5;;;3.7;;
77802;SDS011;66993;48.256;16.422;2023-02-05T09:30:06;4.5;;;3.0;;
77802;SDS011;66993;48.256;16.422;2023-02-05T09:35:07;4.1;;;3.3;;
77802;SDS011;66993;48.256;16.422;2023-02-05T09:40:09;4.0;;;2.6;;
77802;SDS011;66993;48.256;16.422;2023-02-05T09:45:13;6.4;;;3.3;;
77802;SDS011;66993;48.256;16.422;2023-02-05T09:50:12;5.7;;;3.5;;
77802;SDS011;66993;48.256;16.422;2023-02-05T09:55:15;4.0;;;2.6;;
77802;SDS011;66993;48.256;16.422;2023-02-05T10:00:16;6.0;;;3.3;;
77802;SDS011;66993;48.256;16.422;2023-02-05T10:05:14;4.7;;;3.4;;
77802;SDS011;66993;48.256;16.422;2023-02-05T10:10:22;5.6;;;3.9;;
77802;SDS011;66993;48.256;16.422;2023-02-05T10:15:21;5.6;;;3.5;;
77802;SDS011;66993;48.256;16.422;2023-02-05T10:20:21;6.3;;;3.2;;
77802;SDS011;66993;48.256;16.422;2023-02-05T10:25:24;4.8;;;3.6;;
77802;SDS011;66993;48.256;16.422;2023-02-05T10:30:23;5.0;;;3.3;;
77802;SDS011;66993;48.256;16.422;2023-02-05T10:35:23;5.7;;;3.7;;
77802;SDS011;66993;48.256;16.422;2023-02-05T10:40:23;6.9;;;3.4;;
77802;SDS011;66993;48.256;16.422;2023-02-05T10:45:25;5.8;;;3.2;;
77802;SDS011;66993;48.256;16.422;2023-02-05T10:50:26;6.9;;;4.2;;
77802;SDS011;66993;48.256;16.422;2023-02-05T10:55:27;5.4;;;4.3;;
77802;SDS011;66993;48.256;16.422;2023-02-05T11:00:28;6.9;;;4.1;;
77802;SDS011;66993;48.256;16.422;2023-02-05T11:05:30;5.4;;;3.3;;
77802;SDS011;66993;48.256;16.422;2023-02-05T11:10:31;4.3;;;3.0;;
77802;SDS011;66993;48.256;16.422;2023-02-05T11:15:32;5.4;;;3.9;;
77802;SDS011;66993;48.256;16.422;2023-02-05T11:20:34;5.9;;;3.7;;
77802;SDS011;66993;48.256;16.422;2023-02-05T11:25:34;6.9;;;4.0;;
77802;SDS011;66993;48.256;16.422;2023-02-05T11:30:36;5.0;;;3.6;;
77802;SDS011;66993;48.256;16.422;2023-02-05T11:35:37;5.9;;;3.3;;
77802;SDS011;66993;48.256;16.422;2023-02-05T11:40:38;7.3;;;4.7;;
77802;SDS011;66993;48.256;16.422;2023-02-05T11:45:39;5.5;;;3.6;;
77802;SDS011;66993;48.256;16.422;2023-02-05T11:50:42;6.2;;;4.1;;
77802;SDS011;66993;48.256;16.422;2023-02-05T11:55:42;5.6;;;3.5;;
77802;SDS011;66993;48.256;16.422;2023-02-05T12:00:51;6.3;;;3.0;;
77802;SDS011;66993;48.256;16.422;2023-02-05T12:05:46;4.8;;;3.2;;
77802;SDS011;66993;48.256;16.422;2023-02-05T12:10:46;6.7;;;3.1;;
77802;SDS011;66993;48.256;16.422;2023-02-05T12:15:49;6.7;;;3.5;;
77802;SDS011;66993;48.256;16.422;2023-02-05T12:20:49;4.7;;;3.2;;
77802;SDS011;66993;48.256;16.422;2023-02-05T12:25:53;4.4;;;2.3;;
77802;SDS011;66993;48.256;16.422;2023-02-05T12:30:54;4.5;;;2.6;;
77802;SDS011;66993;48.256;16.422;2023-02-05T12:35:55;4.1;;;2.6;;
77802;SDS011;66993;48.256;16.422;2023-02-05T12:40:57;4.4;;;3.1;;
77802;SDS011;66993;48.256;16.422;2023-02-05T12:45:56;5.4;;;3.0;;
77802;SDS011;66993;48.256;16.422;2023-02-05T12:50:59;3.7;;;2.6;;
77802;SDS011;66993;48.256;16.422;2023-02-05T13:00:59;4.3;;;2.9;;
77802;SDS011;66993;48.256;16.422;2023-02-05T13:06:00;4.6;;;3.0;;
77802;SDS011;66993;48.256;16.422;2023-02-05T13:11:02;6.0;;;3.2;;
77802;SDS011;66993;48.256;16.422;2023-02-05T13:16:03;4.7;;;2.8;;
77802;SDS011;66993;48.256;16.422;2023-02-05T13:21:04;5.9;;;4.2;;
77802;SDS011;66993;48.256;16.422;2023-02-05T13:26:05;5.9;;;3.2;;
77802;SDS011;66993;48.256;16.422;2023-02-05T13:31:09;6.4;;;4.0;;
77802;SDS011;66993;48.256;16.422;2023-02-05T13:36:13;6.1;;;3.5;;
77802;SDS011;66993;48.256;16.422;2023-02-05T13:41:18;5.3;;;3.6;;
77802;SDS011;66993;48.256;16.422;2023-02-05T13:46:14;4.9;;;4.3;;
77802;SDS011;66993;48.256;16.422;2023-02-05T13:51:16;6.1;;;3.6;;
77802;SDS011;66993;48.256;16.422;2023-02-05T13:56:19;7.5;;;4.5;;
77802;SDS011;66993;48.256;16.422;2023-02-05T14:01:14;7.3;;;3.8;;
77802;SDS011;66993;48.256;16.422;2023-02-05T14:06:16;5.4;;;3.2;;
77802;SDS011;66993;48.256;16.422;2023-02-05T14:11:16;5.7;;;3.5;;
77802;SDS011;66993;48.256;16.422;2023-02-05T14:26:22;5.8;;;3.6;;
77802;SDS011;66993;48.256;16.422;2023-02-05T14:36:26;6.9;;;3.8;;
77802;SDS011;66993;48.256;16.422;2023-02-05T14:41:24;6.4;;;3.9;;
77802;SDS011;66993;48.256;16.422;2023-02-05T14:46:27;5.2;;;4.1;;
77802;SDS011;66993;48.256;16.422;2023-02-05T14:51:28;6.5;;;3.9;;
77802;SDS011;66993;48.256;16.422;2023-02-05T14:56:28;7.2;;;3.9;;
77802;SDS011;66993;48.256;16.422;2023-02-05T15:06:35;6.8;;;3.6;;
77802;SDS011;66993;48.256;16.422;2023-02-05T15:11:34;6.9;;;4.5;;
77802;SDS011;66993;48.256;16.422;2023-02-05T15:16:33;7.0;;;4.3;;
77802;SDS011;66993;48.256;16.422;2023-02-05T15:21:35;7.4;;;3.7;;
77802;SDS011;66993;48.256;16.422;2023-02-05T15:26:38;6.5;;;4.3;;
77802;SDS011;66993;48.256;16.422;2023-02-05T15:31:39;8.2;;;4.4;;
77802;SDS011;66993;48.256;16.422;2023-02-05T15:36:39;7.9;;;5.1;;
77802;SDS011;66993;48.256;16.422;2023-02-05T15:41:40;8.7;;;5.2;;
77802;SDS011;66993;48.256;16.422;2023-02-05T15:46:41;8.4;;;4.4;;
77802;SDS011;66993;48.256;16.422;2023-02-05T15:51:41;7.4;;;4.4;;
77802;SDS011;66993;48.256;16.422;2023-02-05T15:56:43;8.2;;;4.8;;
77802;SDS011;66993;48.256;16.422;2023-02-05T16:01:45;9.2;;;5.8;;
77802;SDS011;66993;48.256;16.422;2023-02-05T16:06:45;9.8;;;5.3;;
77802;SDS011;66993;48.256;16.422;2023-02-05T16:11:47;6.5;;;4.6;;
77802;SDS011;66993;48.256;16.422;2023-02-05T16:16:52;7.1;;;5.0;;
77802;SDS011;66993;48.256;16.422;2023-02-05T16:21:51;7.7;;;4.7;;
77802;SDS011;66993;48.256;16.422;2023-02-05T16:26:51;8.8;;;5.7;;
77802;SDS011;66993;48.256;16.422;2023-02-05T16:31:55;8.9;;;4.8;;
77802;SDS011;66993;48.256;16.422;2023-02-05T16:36:53;7.4;;;4.4;;
77802;SDS011;66993;48.256;16.422;2023-02-05T16:42:00;8.0;;;5.6;;
77802;SDS011;66993;48.256;16.422;2023-02-05T16:51:57;8.8;;;5.6;;
77802;SDS011;66993;48.256;16.422;2023-02-05T16:57:00;8.0;;;6.1;;
77802;SDS011;66993;48.256;16.422;2023-02-05T17:01:59;8.7;;;4.9;;
77802;SDS011;66993;48.256;16.422;2023-02-05T17:07:01;8.2;;;5.6;;
77802;SDS011;66993;48.256;16.422;2023-02-05T17:17:12;10.9;;;6.5;;
77802;SDS011;66993;48.256;16.422;2023-02-05T17:27:07;9.8;;;5.8;;
77802;SDS011;66993;48.256;16.422;2023-02-05T17:32:08;11.2;;;6.5;;
77802;SDS011;66993;48.256;16.422;2023-02-05T17:37:08;8.8;;;5.0;;
77802;SDS011;66993;48.256;16.422;2023-02-05T17:42:15;9.5;;;6.0;;
77802;SDS011;66993;48.256;16.422;2023-02-05T17:47:10;10.1;;;5.9;;
77802;SDS011;66993;48.256;16.422;2023-02-05T17:52:12;9.5;;;5.0;;
77802;SDS011;66993;48.256;16.422;2023-02-05T17:57:14;10.3;;;6.5;;
77802;SDS011;66993;48.256;16.422;2023-02-05T18:02:14;11.9;;;5.5;;
77802;SDS011;66993;48.256;16.422;2023-02-05T18:07:18;9.3;;;5.9;;
77802;SDS011;66993;48.256;16.422;2023-02-05T18:12:16;9.5;;;6.2;;
77802;SDS011;66993;48.256;16.422;2023-02-05T18:17:18;9.5;;;5.7;;
77802;SDS011;66993;48.256;16.422;2023-02-05T18:22:19;10.7;;;6.8;;
77802;SDS011;66993;48.256;16.422;2023-02-05T18:27:20;11.5;;;6.3;;
77802;SDS011;66993;48.256;16.422;2023-02-05T18:32:22;13.3;;;8.5;;
77802;SDS011;66993;48.256;16.422;2023-02-05T18:37:23;13.8;;;7.4;;
77802;SDS011;66993;48.256;16.422;2023-02-05T18:42:24;16.4;;;7.5;;
77802;SDS011;66993;48.256;16.422;2023-02-05T18:47:26;19.4;;;8.9;;
77802;SDS011;66993;48.256;16.422;2023-02-05T18:52:27;12.1;;;6.5;;
77802;SDS011;66993;48.256;16.422;2023-02-05T18:57:28;12.3;;;7.0;;
77802;SDS011;66993;48.256;16.422;2023-02-05T19:02:30;12.8;;;6.4;;
77802;SDS011;66993;48.256;16.422;2023-02-05T19:07:30;11.2;;;6.6;;
77802;SDS011;66993;48.256;16.422;2023-02-05T19:12:32;15.8;;;8.5;;
77802;SDS011;66993;48.256;16.422;2023-02-05T19:17:33;13.4;;;7.7;;
77802;SDS011;66993;48.256;16.422;2023-02-05T19:22:34;15.2;;;8.3;;
77802;SDS011;66993;48.256;16.422;2023-02-05T19:27:35;13.0;;;7.6;;
77802;SDS011;66993;48.256;16.422;2023-02-05T19:32:37;14.7;;;6.8;;
77802;SDS011;66993;48.256;16.422;2023-02-05T19:37:38;14.5;;;7.3;;
77802;SDS011;66993;48.256;16.422;2023-02-05T19:42:39;13.0;;;7.4;;
77802;SDS011;66993;48.256;16.422;2023-02-05T19:47:40;13.8;;;8.6;;
77802;SDS011;66993;48.256;16.422;2023-02-05T19:52:42;14.0;;;7.7;;
77802;SDS011;66993;48.256;16.422;2023-02-05T19:57:43;13.7;;;7.6;;
77802;SDS011;66993;48.256;16.422;2023-02-05T20:02:44;13.8;;;7.7;;
77802;SDS011;66993;48.256;16.422;2023-02-05T20:07:47;14.0;;;8.1;;
77802;SDS011;66993;48.256;16.422;2023-02-05T20:12:47;14.1;;;8.7;;
77802;SDS011;66993;48.256;16.422;2023-02-05T20:17:48;17.0;;;8.7;;
77802;SDS011;66993;48.256;16.422;2023-02-05T20:22:49;15.1;;;7.6;;
77802;SDS011;66993;48.256;16.422;2023-02-05T20:27:50;16.3;;;8.5;;
77802;SDS011;66993;48.256;16.422;2023-02-05T20:32:52;16.6;;;8.2;;
77802;SDS011;66993;48.256;16.422;2023-02-05T20:37:53;16.1;;;9.6;;
77802;SDS011;66993;48.256;16.422;2023-02-05T20:42:54;15.1;;;8.6;;
77802;SDS011;66993;48.256;16.422;2023-02-05T20:47:55;15.9;;;7.9;;
77802;SDS011;66993;48.256;16.422;2023-02-05T20:52:56;16.5;;;9.5;;
77802;SDS011;66993;48.256;16.422;2023-02-05T20:57:58;16.2;;;8.3;;
77802;SDS011;66993;48.256;16.422;2023-02-05T21:02:59;17.5;;;9.7;;
77802;SDS011;66993;48.256;16.422;2023-02-05T21:08:01;15.2;;;8.4;;
77802;SDS011;66993;48.256;16.422;2023-02-05T21:13:02;17.6;;;8.9;;
77802;SDS011;66993;48.256;16.422;2023-02-05T21:18:03;17.1;;;10.0;;
77802;SDS011;66993;48.256;16.422;2023-02-05T21:23:04;17.0;;;8.0;;
77802;SDS011;66993;48.256;16.422;2023-02-05T21:28:05;16.8;;;9.2;;
77802;SDS011;66993;48.256;16.422;2023-02-05T21:33:07;16.5;;;9.2;;
77802;SDS011;66993;48.256;16.422;2023-02-05T21:38:09;17.0;;;7.7;;
77802;SDS011;66993;48.256;16.422;2023-02-05T21:43:09;18.3;;;8.6;;
77802;SDS011;66993;48.256;16.422;2023-02-05T21:48:11;17.5;;;8.4;;
77802;SDS011;66993;48.256;16.422;2023-02-05T21:53:12;17.9;;;9.5;;
77802;SDS011;66993;48.256;16.422;2023-02-05T21:58:13;19.3;;;9.0;;
77802;SDS011;66993;48.256;16.422;2023-02-05T22:03:14;17.0;;;7.9;;
77802;SDS011;66993;48.256;16.422;2023-02-05T22:08:17;14.6;;;8.4;;
77802;SDS011;66993;48.256;16.422;2023-02-05T22:13:17;15.8;;;8.5;;
77802;SDS011;66993;48.256;16.422;2023-02-05T22:18:19;17.4;;;9.8;;
77802;SDS011;66993;48.256;16.422;2023-02-05T22:23:19;17.3;;;8.5;;
77802;SDS011;66993;48.256;16.422;2023-02-05T22:28:21;15.0;;;8.1;;
77802;SDS011;66993;48.256;16.422;2023-02-05T22:33:22;15.7;;;9.2;;
77802;SDS011;66993;48.256;16.422;2023-02-05T22:38:24;13.2;;;7.8;;
77802;SDS011;66993;48.256;16.422;2023-02-05T22:43:25;14.6;;;8.9;;
77802;SDS011;66993;48.256;16.422;2023-02-05T22:48:27;15.9;;;8.3;;
77802;SDS011;66993;48.256;16.422;2023-02-05T22:53:27;15.9;;;8.4;;
77802;SDS011;66993;48.256;16.422;2023-02-05T22:58:29;15.5;;;9.9;;
77802;SDS011;66993;48.256;16.422;2023-02-05T23:03:30;15.7;;;8.7;;
77802;SDS011;66993;48.256;16.422;2023-02-05T23:08:32;15.2;;;9.6;;
77802;SDS011;66993;48.256;16.422;2023-02-05T23:13:33;14.8;;;7.8;;
77802;SDS011;66993;48.256;16.422;2023-02-05T23:18:34;14.9;;;7.6;;
77802;SDS011;66993;48.256;16.422;2023-02-05T23:23:35;14.7;;;7.7;;
77802;SDS011;66993;48.256;16.422;2023-02-05T23:28:36;15.4;;;7.8;;
77802;SDS011;66993;48.256;16.422;2023-02-05T23:33:38;15.5;;;8.5;;
77802;SDS011;66993;48.256;16.422;2023-02-05T23:38:40;17.4;;;8.4;;
77802;SDS011;66993;48.256;16.422;2023-02-05T23:43:40;17.6;;;8.2;;
77802;SDS011;66993;48.256;16.422;2023-02-05T23:48:41;15.8;;;8.4;;
77802;SDS011;66993;48.256;16.422;2023-02-05T23:53:43;13.9;;;7.8;;
77802;SDS011;66993;48.256;16.422;2023-02-05T23:58:44;14.3;;;8.3;;
